createdAt,value
2018-04-27T00:00:56.580Z,4.98
2018-04-27T00:01:56.485Z,4.98
2018-04-27T00:02:56.417Z,4.88
2018-04-27T00:03:56.330Z,4.91
2018-04-27T00:04:56.263Z,4.80
2018-04-27T00:05:56.172Z,4.85
2018-04-27T00:06:56.099Z,4.77
2018-04-27T00:07:56.014Z,4.76
2018-04-27T00:08:55.938Z,4.73
2018-04-27T00:09:55.856Z,4.64
2018-04-27T00:10:55.782Z,4.62
2018-04-27T00:11:55.689Z,4.64
2018-04-27T00:12:55.624Z,4.55
2018-04-27T00:13:55.538Z,4.62
2018-04-27T00:14:55.467Z,4.64
2018-04-27T00:15:55.379Z,4.65
2018-04-27T00:16:55.306Z,4.58
2018-04-27T00:17:55.218Z,4.55
2018-04-27T00:18:55.147Z,4.62
2018-04-27T00:19:55.065Z,4.68
2018-04-27T00:20:54.991Z,4.68
2018-04-27T00:21:54.908Z,4.62
2018-04-27T00:22:54.836Z,4.68
2018-04-27T00:23:54.749Z,4.76
2018-04-27T00:24:54.673Z,4.76
2018-04-27T00:25:54.591Z,4.85
2018-04-27T00:26:54.513Z,4.80
2018-04-27T00:27:54.445Z,4.85
2018-04-27T00:28:54.353Z,4.87
2018-04-27T00:29:54.266Z,4.83
2018-04-27T00:30:55.199Z,4.84
2018-04-27T00:31:54.119Z,4.87
2018-04-27T00:32:54.040Z,4.88
2018-04-27T00:33:53.955Z,4.83
2018-04-27T00:34:53.887Z,4.73
2018-04-27T00:35:53.789Z,4.73
2018-04-27T00:36:54.728Z,4.69
2018-04-27T00:37:53.636Z,4.74
2018-04-27T00:38:53.570Z,4.66
2018-04-27T00:39:53.476Z,4.68
2018-04-27T00:40:53.414Z,4.66
2018-04-27T00:41:53.320Z,4.76
2018-04-27T00:42:53.265Z,4.58
2018-04-27T00:43:53.158Z,4.62
2018-04-27T00:44:53.096Z,4.58
2018-04-27T00:45:53.009Z,4.52
2018-04-27T00:46:52.932Z,4.52
2018-04-27T00:47:52.849Z,4.43
2018-04-27T00:48:52.773Z,4.36
2018-04-27T00:49:52.687Z,4.37
2018-04-27T00:50:52.613Z,4.40
2018-04-27T00:51:52.530Z,4.38
2018-04-27T00:52:52.469Z,4.36
2018-04-27T00:53:52.372Z,4.44
2018-04-27T00:54:52.298Z,4.47
2018-04-27T00:55:52.207Z,4.44
2018-04-27T00:56:52.139Z,4.44
2018-04-27T00:57:52.050Z,4.41
2018-04-27T00:58:51.980Z,4.32
2018-04-27T00:59:51.900Z,4.32
2018-04-27T01:00:51.819Z,4.32
2018-04-27T01:01:51.734Z,4.29
2018-04-27T01:02:51.666Z,4.28
2018-04-27T01:03:51.575Z,4.20
2018-04-27T01:04:51.507Z,4.25
2018-04-27T01:05:51.417Z,4.23
2018-04-27T01:06:51.342Z,4.15
2018-04-27T01:07:51.267Z,4.22
2018-04-27T01:08:51.202Z,4.19
2018-04-27T01:09:51.101Z,4.23
2018-04-27T01:10:51.028Z,4.19
2018-04-27T01:11:50.948Z,4.23
2018-04-27T01:12:50.870Z,4.28
2018-04-27T01:13:50.792Z,4.12
2018-04-27T01:14:50.720Z,4.12
2018-04-27T01:15:50.623Z,4.18
2018-04-27T01:16:50.548Z,4.11
2018-04-27T01:17:50.463Z,4.10
2018-04-27T01:18:50.391Z,4.18
2018-04-27T01:19:50.306Z,4.10
2018-04-27T01:20:50.227Z,4.12
2018-04-27T01:21:50.146Z,4.11
2018-04-27T01:22:50.074Z,4.19
2018-04-27T01:23:49.999Z,4.12
2018-04-27T01:24:49.914Z,4.05
2018-04-27T01:25:49.825Z,4.01
2018-04-27T01:26:49.755Z,4.01
2018-04-27T01:27:49.675Z,3.89
2018-04-27T01:28:49.594Z,3.93
2018-04-27T01:29:49.515Z,3.87
2018-04-27T01:30:49.444Z,4.02
2018-04-27T01:31:49.359Z,3.92
2018-04-27T01:32:49.284Z,4.00
2018-04-27T01:33:49.198Z,3.86
2018-04-27T01:34:49.118Z,4.00
2018-04-27T01:35:49.031Z,4.01
2018-04-27T01:36:48.960Z,4.10
2018-04-27T01:37:48.870Z,4.10
2018-04-27T01:38:49.808Z,4.16
2018-04-27T01:39:48.714Z,4.10
2018-04-27T01:40:48.642Z,4.12
2018-04-27T01:41:48.554Z,4.19
2018-04-27T01:42:48.482Z,4.10
2018-04-27T01:43:48.390Z,4.10
2018-04-27T01:44:48.327Z,4.18
2018-04-27T01:45:48.235Z,4.10
2018-04-27T01:46:48.160Z,4.05
2018-04-27T01:47:48.073Z,4.10
2018-04-27T01:48:48.014Z,4.10
2018-04-27T01:49:47.916Z,4.20
2018-04-27T01:50:47.842Z,4.11
2018-04-27T01:51:47.761Z,4.16
2018-04-27T01:52:47.691Z,4.12
2018-04-27T01:53:47.602Z,4.10
2018-04-27T01:54:47.529Z,4.01
2018-04-27T01:55:47.447Z,4.00
2018-04-27T01:56:47.373Z,3.86
2018-04-27T01:57:47.287Z,3.87
2018-04-27T01:58:47.208Z,3.82
2018-04-27T01:59:47.122Z,3.77
2018-04-27T02:00:47.057Z,3.72
2018-04-27T02:01:46.960Z,3.79
2018-04-27T02:02:46.886Z,3.82
2018-04-27T02:03:46.887Z,3.97
2018-04-27T02:04:46.735Z,4.00
2018-04-27T02:05:46.641Z,4.01
2018-04-27T02:06:46.571Z,4.04
2018-04-27T02:07:46.484Z,3.89
2018-04-27T02:08:46.420Z,4.01
2018-04-27T02:09:46.339Z,3.90
2018-04-27T02:10:46.253Z,3.86
2018-04-27T02:11:46.165Z,3.75
2018-04-27T02:12:46.099Z,3.74
2018-04-27T02:13:46.009Z,3.64
2018-04-27T02:14:45.939Z,3.64
2018-04-27T02:15:45.844Z,3.64
2018-04-27T02:16:45.775Z,3.62
2018-04-27T02:17:45.685Z,3.62
2018-04-27T02:18:45.611Z,3.65
2018-04-27T02:19:45.527Z,3.75
2018-04-27T02:20:45.457Z,3.75
2018-04-27T02:21:45.364Z,3.75
2018-04-27T02:22:46.296Z,3.68
2018-04-27T02:23:45.211Z,3.72
2018-04-27T02:24:45.135Z,3.64
2018-04-27T02:25:45.052Z,3.64
2018-04-27T02:26:44.975Z,3.65
2018-04-27T02:27:44.889Z,3.62
2018-04-27T02:28:44.816Z,3.65
2018-04-27T02:29:44.726Z,3.65
2018-04-27T02:30:44.653Z,3.69
2018-04-27T02:31:44.570Z,3.68
2018-04-27T02:32:44.515Z,3.80
2018-04-27T02:33:44.416Z,3.68
2018-04-27T02:34:44.334Z,3.71
2018-04-27T02:35:44.247Z,3.71
2018-04-27T02:36:44.176Z,3.69
2018-04-27T02:37:44.086Z,3.66
2018-04-27T02:38:44.012Z,3.74
2018-04-27T02:39:43.926Z,3.72
2018-04-27T02:40:43.923Z,3.72
2018-04-27T02:41:43.769Z,3.72
2018-04-27T02:42:43.696Z,3.74
2018-04-27T02:43:43.608Z,3.62
2018-04-27T02:44:43.534Z,3.65
2018-04-27T02:45:43.451Z,3.66
2018-04-27T02:46:43.373Z,3.59
2018-04-27T02:47:43.285Z,3.66
2018-04-27T02:48:43.222Z,3.59
2018-04-27T02:49:43.127Z,3.61
2018-04-27T02:50:43.053Z,3.57
2018-04-27T02:51:42.967Z,3.62
2018-04-27T02:52:42.893Z,3.54
2018-04-27T02:53:42.812Z,3.51
2018-04-27T02:54:43.733Z,3.59
2018-04-27T02:55:42.653Z,3.56
2018-04-27T02:56:42.573Z,3.51
2018-04-27T02:57:42.488Z,3.50
2018-04-27T02:58:42.418Z,3.66
2018-04-27T02:59:42.330Z,3.61
2018-04-27T03:00:42.254Z,3.56
2018-04-27T03:01:42.165Z,3.56
2018-04-27T03:02:42.093Z,3.46
2018-04-27T03:03:42.027Z,3.43
2018-04-27T03:04:41.931Z,3.34
2018-04-27T03:05:41.857Z,3.34
2018-04-27T03:06:41.775Z,3.28
2018-04-27T03:07:41.691Z,3.21
2018-04-27T03:08:41.618Z,3.17
2018-04-27T03:09:41.529Z,3.13
2018-04-27T03:10:41.452Z,3.19
2018-04-27T03:11:41.365Z,3.19
2018-04-27T03:12:41.297Z,3.22
2018-04-27T03:13:41.213Z,3.27
2018-04-27T03:14:41.137Z,3.27
2018-04-27T03:15:41.047Z,3.25
2018-04-27T03:16:40.979Z,3.22
2018-04-27T03:17:40.885Z,3.29
2018-04-27T03:18:40.820Z,3.25
2018-04-27T03:19:40.725Z,3.11
2018-04-27T03:20:40.654Z,3.11
2018-04-27T03:21:40.564Z,3.03
2018-04-27T03:22:40.493Z,2.99
2018-04-27T03:23:40.415Z,3.04
2018-04-27T03:24:40.335Z,3.03
2018-04-27T03:25:40.241Z,2.99
2018-04-27T03:26:41.177Z,2.98
2018-04-27T03:27:40.084Z,2.99
2018-04-27T03:28:40.015Z,3.03
2018-04-27T03:29:39.929Z,3.06
2018-04-27T03:30:39.851Z,3.14
2018-04-27T03:31:39.773Z,3.16
2018-04-27T03:32:39.694Z,3.11
2018-04-27T03:33:39.601Z,3.16
2018-04-27T03:34:39.528Z,3.19
2018-04-27T03:35:39.439Z,3.22
2018-04-27T03:36:39.377Z,3.21
2018-04-27T03:37:39.291Z,3.28
2018-04-27T03:38:39.215Z,3.17
2018-04-27T03:39:39.131Z,3.16
2018-04-27T03:40:39.046Z,3.14
2018-04-27T03:41:38.961Z,3.22
2018-04-27T03:42:38.888Z,3.21
2018-04-27T03:43:38.800Z,3.16
2018-04-27T03:44:38.724Z,2.96
2018-04-27T03:45:38.642Z,2.96
2018-04-27T03:46:38.559Z,2.96
2018-04-27T03:47:38.479Z,2.84
2018-04-27T03:48:38.410Z,2.86
2018-04-27T03:49:38.319Z,2.75
2018-04-27T03:50:38.248Z,2.78
2018-04-27T03:51:38.163Z,2.81
2018-04-27T03:52:38.082Z,2.84
2018-04-27T03:53:38.001Z,2.88
2018-04-27T03:54:37.923Z,2.95
2018-04-27T03:55:37.834Z,3.03
2018-04-27T03:56:37.775Z,3.03
2018-04-27T03:57:37.678Z,2.96
2018-04-27T03:58:37.604Z,2.98
2018-04-27T03:59:37.520Z,2.95
2018-04-27T04:00:37.454Z,2.95
2018-04-27T04:01:37.354Z,2.78
2018-04-27T04:02:37.286Z,2.80
2018-04-27T04:03:37.195Z,2.77
2018-04-27T04:04:37.119Z,2.66
2018-04-27T04:05:37.030Z,2.57
2018-04-27T04:06:36.955Z,2.70
2018-04-27T04:07:36.868Z,2.59
2018-04-27T04:08:36.799Z,2.56
2018-04-27T04:09:36.710Z,2.63
2018-04-27T04:10:36.637Z,2.63
2018-04-27T04:11:36.549Z,2.53
2018-04-27T04:12:36.475Z,2.63
2018-04-27T04:13:36.388Z,2.57
2018-04-27T04:14:36.318Z,2.50
2018-04-27T04:15:36.227Z,2.66
2018-04-27T04:16:36.156Z,2.66
2018-04-27T04:17:36.067Z,2.81
2018-04-27T04:18:35.993Z,2.84
2018-04-27T04:19:35.907Z,2.84
2018-04-27T04:20:35.834Z,2.86
2018-04-27T04:21:35.742Z,2.88
2018-04-27T04:22:35.673Z,2.86
2018-04-27T04:23:35.582Z,2.81
2018-04-27T04:24:35.513Z,2.88
2018-04-27T04:25:35.424Z,2.70
2018-04-27T04:26:35.346Z,2.77
2018-04-27T04:27:35.262Z,2.67
2018-04-27T04:28:35.191Z,2.59
2018-04-27T04:29:35.097Z,2.80
2018-04-27T04:30:35.023Z,2.73
2018-04-27T04:31:34.937Z,2.80
2018-04-27T04:32:34.867Z,2.71
2018-04-27T04:33:34.777Z,2.74
2018-04-27T04:34:34.704Z,2.63
2018-04-27T04:35:34.625Z,2.74
2018-04-27T04:36:34.562Z,2.80
2018-04-27T04:37:34.455Z,2.77
2018-04-27T04:38:34.391Z,2.88
2018-04-27T04:39:34.301Z,2.88
2018-04-27T04:40:34.237Z,2.99
2018-04-27T04:41:34.142Z,2.93
2018-04-27T04:42:34.065Z,2.99
2018-04-27T04:43:33.972Z,2.99
2018-04-27T04:44:33.950Z,2.96
2018-04-27T04:45:33.812Z,3.01
2018-04-27T04:46:33.757Z,3.03
2018-04-27T04:47:33.646Z,3.16
2018-04-27T04:48:33.669Z,3.17
2018-04-27T04:49:33.484Z,3.14
2018-04-27T04:50:33.477Z,3.19
2018-04-27T04:51:33.327Z,3.21
2018-04-27T04:52:33.320Z,3.28
2018-04-27T04:53:33.168Z,3.32
2018-04-27T04:54:33.195Z,3.34
2018-04-27T04:55:33.002Z,3.41
2018-04-27T04:56:33.008Z,3.46
2018-04-27T04:57:32.841Z,3.54
2018-04-27T04:58:32.812Z,3.51
2018-04-27T04:59:32.683Z,3.51
2018-04-27T05:00:32.607Z,3.51
2018-04-27T05:01:32.520Z,3.62
2018-04-27T05:02:32.535Z,3.64
2018-04-27T05:03:32.354Z,3.64
2018-04-27T05:04:32.341Z,3.71
2018-04-27T05:05:32.206Z,3.64
2018-04-27T05:06:32.156Z,3.62
2018-04-27T05:07:32.044Z,3.65
2018-04-27T05:08:32.060Z,3.66
2018-04-27T05:09:31.875Z,3.65
2018-04-27T05:10:31.877Z,3.74
2018-04-27T05:11:31.716Z,3.79
2018-04-27T05:12:31.676Z,3.79
2018-04-27T05:13:31.552Z,3.75
2018-04-27T05:14:31.485Z,3.74
2018-04-27T05:15:31.394Z,3.74
2018-04-27T05:16:31.336Z,3.77
2018-04-27T05:17:31.231Z,3.86
2018-04-27T05:18:31.165Z,3.83
2018-04-27T05:19:31.077Z,3.94
2018-04-27T05:20:30.997Z,3.97
2018-04-27T05:21:30.908Z,3.83
2018-04-27T05:22:30.839Z,3.86
2018-04-27T05:23:30.750Z,3.98
2018-04-27T05:24:30.687Z,3.93
2018-04-27T05:25:30.595Z,3.92
2018-04-27T05:26:30.516Z,4.04
2018-04-27T05:27:30.428Z,4.07
2018-04-27T05:28:30.358Z,4.05
2018-04-27T05:29:30.267Z,4.02
2018-04-27T05:30:30.195Z,4.04
2018-04-27T05:31:30.109Z,4.04
2018-04-27T05:32:30.032Z,4.01
2018-04-27T05:33:29.945Z,4.07
2018-04-27T05:34:29.869Z,4.10
2018-04-27T05:35:29.792Z,4.05
2018-04-27T05:36:29.708Z,4.12
2018-04-27T05:37:29.697Z,4.22
2018-04-27T05:38:29.545Z,4.08
2018-04-27T05:39:29.503Z,4.08
2018-04-27T05:40:29.387Z,4.22
2018-04-27T05:41:29.416Z,4.23
2018-04-27T05:42:29.227Z,4.26
2018-04-27T05:43:29.221Z,4.25
2018-04-27T05:44:29.065Z,4.23
2018-04-27T05:45:29.031Z,4.22
2018-04-27T05:46:28.905Z,4.25
2018-04-27T05:47:28.942Z,4.26
2018-04-27T05:48:28.753Z,4.29
2018-04-27T05:49:28.750Z,4.37
2018-04-27T05:50:28.585Z,4.32
2018-04-27T05:51:28.518Z,4.46
2018-04-27T05:52:28.423Z,4.43
2018-04-27T05:53:28.370Z,4.50
2018-04-27T05:54:28.261Z,4.44
2018-04-27T05:55:28.287Z,4.55
2018-04-27T05:56:28.107Z,4.56
2018-04-27T05:57:28.099Z,4.54
2018-04-27T05:58:27.943Z,4.62
2018-04-27T05:59:27.896Z,4.56
2018-04-27T06:00:27.785Z,4.65
2018-04-27T06:01:27.810Z,4.64
2018-04-27T06:02:27.629Z,4.68
2018-04-27T06:03:27.617Z,4.74
2018-04-27T06:04:27.471Z,4.80
2018-04-27T06:05:27.430Z,4.85
2018-04-27T06:06:27.304Z,4.87
2018-04-27T06:07:27.340Z,4.91
2018-04-27T06:08:27.142Z,4.96
2018-04-27T06:09:27.151Z,5.06
2018-04-27T06:10:26.986Z,5.11
2018-04-27T06:11:26.911Z,5.11
2018-04-27T06:12:26.863Z,5.21
2018-04-27T06:13:26.744Z,5.21
2018-04-27T06:14:26.780Z,5.34
2018-04-27T06:15:26.585Z,5.41
2018-04-27T06:16:26.587Z,5.41
2018-04-27T06:17:26.425Z,5.57
2018-04-27T06:18:26.391Z,5.54
2018-04-27T06:19:26.271Z,5.67
2018-04-27T06:20:26.193Z,5.63
2018-04-27T06:21:26.108Z,5.70
2018-04-27T06:22:26.114Z,5.72
2018-04-27T06:23:25.950Z,5.80
2018-04-27T06:24:25.926Z,5.88
2018-04-27T06:25:25.797Z,5.96
2018-04-27T06:26:25.732Z,5.92
2018-04-27T06:27:25.631Z,6.10
2018-04-27T06:28:25.643Z,6.06
2018-04-27T06:29:25.492Z,6.15
2018-04-27T06:30:25.450Z,6.24
2018-04-27T06:31:25.309Z,6.24
2018-04-27T06:32:25.260Z,6.37
2018-04-27T06:33:25.154Z,6.39
2018-04-27T06:34:25.175Z,6.44
2018-04-27T06:35:25.001Z,6.52
2018-04-27T06:36:24.981Z,6.50
2018-04-27T06:37:24.836Z,6.62
2018-04-27T06:38:24.795Z,6.63
2018-04-27T06:39:24.738Z,6.83
2018-04-27T06:40:24.699Z,6.75
2018-04-27T06:41:24.518Z,6.96
2018-04-27T06:42:24.515Z,7.01
2018-04-27T06:43:24.359Z,7.08
2018-04-27T06:44:24.423Z,7.19
2018-04-27T06:45:24.204Z,7.23
2018-04-27T06:46:24.203Z,7.30
2018-04-27T06:47:24.047Z,7.38
2018-04-27T06:48:24.008Z,7.42
2018-04-27T06:49:23.885Z,7.55
2018-04-27T06:50:23.917Z,7.70
2018-04-27T06:51:23.726Z,7.76
2018-04-27T06:52:23.726Z,7.94
2018-04-27T06:53:23.569Z,7.94
2018-04-27T06:54:23.531Z,7.97
2018-04-27T06:55:23.414Z,8.09
2018-04-27T06:56:23.447Z,8.15
2018-04-27T06:57:23.254Z,8.21
2018-04-27T06:58:23.264Z,8.19
2018-04-27T06:59:23.124Z,8.24
2018-04-27T07:00:23.074Z,8.37
2018-04-27T07:01:22.941Z,8.57
2018-04-27T07:02:22.880Z,8.65
2018-04-27T07:03:22.805Z,8.85
2018-04-27T07:04:22.790Z,8.93
2018-04-27T07:05:22.711Z,9.09
2018-04-27T07:06:22.602Z,9.13
2018-04-27T07:07:22.475Z,9.24
2018-04-27T07:08:22.503Z,9.32
2018-04-27T07:09:22.323Z,9.40
2018-04-27T07:10:22.316Z,9.46
2018-04-27T07:11:22.160Z,9.56
2018-04-27T07:12:22.123Z,9.65
2018-04-27T07:13:22.011Z,9.67
2018-04-27T07:14:22.037Z,9.83
2018-04-27T07:15:21.853Z,9.89
2018-04-27T07:16:21.841Z,9.90
2018-04-27T07:17:21.690Z,9.97
2018-04-27T07:18:21.649Z,10.06
2018-04-27T07:19:21.528Z,10.26
2018-04-27T07:20:21.561Z,10.31
2018-04-27T07:21:21.384Z,10.43
2018-04-27T07:22:21.364Z,10.58
2018-04-27T07:23:21.235Z,10.74
2018-04-27T07:24:21.175Z,10.75
2018-04-27T07:25:21.064Z,10.88
2018-04-27T07:26:21.086Z,11.02
2018-04-27T07:27:20.912Z,11.13
2018-04-27T07:28:20.894Z,11.26
2018-04-27T07:29:20.761Z,11.34
2018-04-27T07:30:20.702Z,11.32
2018-04-27T07:31:20.603Z,11.50
2018-04-27T07:32:20.614Z,11.54
2018-04-27T07:33:20.448Z,11.65
2018-04-27T07:34:20.424Z,11.86
2018-04-27T07:35:20.289Z,11.87
2018-04-27T07:36:20.334Z,11.97
2018-04-27T07:37:20.137Z,12.08
2018-04-27T07:38:20.145Z,12.21
2018-04-27T07:39:19.986Z,12.28
2018-04-27T07:40:19.951Z,12.41
2018-04-27T07:41:19.834Z,12.41
2018-04-27T07:42:19.858Z,12.46
2018-04-27T07:43:19.679Z,12.60
2018-04-27T07:44:19.667Z,12.55
2018-04-27T07:45:19.623Z,12.71
2018-04-27T07:46:19.482Z,12.89
2018-04-27T07:47:19.376Z,13.03
2018-04-27T07:48:19.385Z,13.06
2018-04-27T07:49:19.220Z,13.02
2018-04-27T07:50:19.207Z,13.15
2018-04-27T07:51:19.064Z,13.19
2018-04-27T07:52:19.114Z,13.17
2018-04-27T07:53:18.916Z,13.32
2018-04-27T07:54:18.918Z,13.38
2018-04-27T07:55:18.773Z,13.63
2018-04-27T07:56:18.728Z,13.56
2018-04-27T07:57:18.609Z,13.81
2018-04-27T07:58:18.635Z,13.83
2018-04-27T07:59:18.464Z,13.92
2018-04-27T08:00:18.444Z,14.10
2018-04-27T08:01:18.307Z,14.14
2018-04-27T08:02:18.341Z,14.36
2018-04-27T08:03:18.153Z,14.39
2018-04-27T08:04:18.158Z,14.36
2018-04-27T08:05:18.007Z,14.49
2018-04-27T08:06:17.974Z,14.52
2018-04-27T08:07:17.934Z,14.56
2018-04-27T08:08:17.881Z,14.59
2018-04-27T08:09:17.709Z,14.54
2018-04-27T08:10:17.691Z,14.52
2018-04-27T08:11:17.598Z,14.60
2018-04-27T08:12:17.494Z,14.68
2018-04-27T08:13:17.415Z,14.80
2018-04-27T08:14:17.416Z,14.95
2018-04-27T08:15:17.258Z,14.97
2018-04-27T08:16:17.221Z,15.20
2018-04-27T08:17:17.107Z,15.12
2018-04-27T08:18:17.132Z,15.27
2018-04-27T08:19:16.957Z,15.16
2018-04-27T08:20:16.937Z,15.18
2018-04-27T08:21:16.808Z,15.15
2018-04-27T08:22:16.855Z,15.26
2018-04-27T08:23:16.664Z,15.16
2018-04-27T08:24:16.659Z,15.27
2018-04-27T08:25:16.507Z,15.31
2018-04-27T08:26:16.464Z,15.21
2018-04-27T08:27:16.370Z,15.15
2018-04-27T08:28:16.374Z,15.27
2018-04-27T08:29:16.210Z,15.30
2018-04-27T08:30:16.222Z,15.42
2018-04-27T08:31:16.061Z,15.39
2018-04-27T08:32:16.094Z,15.42
2018-04-27T08:33:15.918Z,15.16
2018-04-27T08:34:15.901Z,15.24
2018-04-27T08:35:15.769Z,15.27
2018-04-27T08:36:15.792Z,15.18
2018-04-27T08:37:15.617Z,15.15
2018-04-27T08:38:16.650Z,15.38
2018-04-27T08:39:15.472Z,15.35
2018-04-27T08:40:15.427Z,15.39
2018-04-27T08:41:15.327Z,15.46
2018-04-27T08:42:15.346Z,15.59
2018-04-27T08:43:15.175Z,15.68
2018-04-27T08:44:15.149Z,15.82
2018-04-27T08:45:15.029Z,16.04
2018-04-27T08:46:15.063Z,16.04
2018-04-27T08:47:14.886Z,16.18
2018-04-27T08:48:14.867Z,16.16
2018-04-27T08:49:14.733Z,16.12
2018-04-27T08:50:14.683Z,16.27
2018-04-27T08:51:14.587Z,16.34
2018-04-27T08:52:14.587Z,16.44
2018-04-27T08:53:14.442Z,16.42
2018-04-27T08:54:14.402Z,16.45
2018-04-27T08:55:14.298Z,16.42
2018-04-27T08:56:14.308Z,16.20
2018-04-27T08:57:14.152Z,16.18
2018-04-27T08:58:14.118Z,16.20
2018-04-27T08:59:14.000Z,16.12
2018-04-27T09:00:14.025Z,16.06
2018-04-27T09:01:13.856Z,16.14
2018-04-27T09:02:13.840Z,16.16
2018-04-27T09:03:13.711Z,16.25
2018-04-27T09:04:13.752Z,16.41
2018-04-27T09:05:13.569Z,16.40
2018-04-27T09:06:13.583Z,16.42
2018-04-27T09:07:13.422Z,16.55
2018-04-27T09:08:13.365Z,16.63
2018-04-27T09:09:13.275Z,16.62
2018-04-27T09:10:13.283Z,16.73
2018-04-27T09:11:13.150Z,16.75
2018-04-27T09:12:13.083Z,16.80
2018-04-27T09:13:12.984Z,16.85
2018-04-27T09:14:12.998Z,16.66
2018-04-27T09:15:12.839Z,16.66
2018-04-27T09:16:12.831Z,16.71
2018-04-27T09:17:12.695Z,16.81
2018-04-27T09:18:12.717Z,16.81
2018-04-27T09:19:12.552Z,16.73
2018-04-27T09:20:12.522Z,16.88
2018-04-27T09:21:12.408Z,16.74
2018-04-27T09:22:12.439Z,16.80
2018-04-27T09:23:12.260Z,16.66
2018-04-27T09:24:12.249Z,16.81
2018-04-27T09:25:12.113Z,16.84
2018-04-27T09:26:12.155Z,16.85
2018-04-27T09:27:11.970Z,16.67
2018-04-27T09:28:11.972Z,16.65
2018-04-27T09:29:11.835Z,16.66
2018-04-27T09:30:11.878Z,16.74
2018-04-27T09:31:11.687Z,16.84
2018-04-27T09:32:11.751Z,17.08
2018-04-27T09:33:11.534Z,17.15
2018-04-27T09:34:11.492Z,17.11
2018-04-27T09:35:11.395Z,17.14
2018-04-27T09:36:11.404Z,17.17
2018-04-27T09:37:11.249Z,17.07
2018-04-27T09:38:11.214Z,17.15
2018-04-27T09:39:11.111Z,17.17
2018-04-27T09:40:11.126Z,17.13
2018-04-27T09:41:10.964Z,17.14
2018-04-27T09:42:10.932Z,17.02
2018-04-27T09:43:10.819Z,17.17
2018-04-27T09:44:10.842Z,17.17
2018-04-27T09:45:10.676Z,17.46
2018-04-27T09:46:10.649Z,17.43
2018-04-27T09:47:10.539Z,17.53
2018-04-27T09:48:10.561Z,17.57
2018-04-27T09:49:10.392Z,17.69
2018-04-27T09:50:10.367Z,17.54
2018-04-27T09:51:10.248Z,17.46
2018-04-27T09:52:10.297Z,17.48
2018-04-27T09:53:10.101Z,17.46
2018-04-27T09:54:10.095Z,17.67
2018-04-27T09:55:09.958Z,17.77
2018-04-27T09:56:10.003Z,17.66
2018-04-27T09:57:09.816Z,17.70
2018-04-27T09:58:09.808Z,17.74
2018-04-27T09:59:09.672Z,17.85
2018-04-27T10:00:09.715Z,17.94
2018-04-27T10:01:09.535Z,17.85
2018-04-27T10:02:09.526Z,17.89
2018-04-27T10:03:09.387Z,17.67
2018-04-27T10:04:09.334Z,17.88
2018-04-27T10:05:09.248Z,17.77
2018-04-27T10:06:09.245Z,17.96
2018-04-27T10:07:09.106Z,18.09
2018-04-27T10:08:09.050Z,18.10
2018-04-27T10:09:08.959Z,18.13
2018-04-27T10:10:08.966Z,17.91
2018-04-27T10:11:08.825Z,17.92
2018-04-27T10:12:08.771Z,17.96
2018-04-27T10:13:08.674Z,17.98
2018-04-27T10:14:08.686Z,18.06
2018-04-27T10:15:08.542Z,18.10
2018-04-27T10:16:08.490Z,18.03
2018-04-27T10:17:08.394Z,18.04
2018-04-27T10:18:08.405Z,17.98
2018-04-27T10:19:08.253Z,18.03
2018-04-27T10:20:08.227Z,18.21
2018-04-27T10:21:08.139Z,18.02
2018-04-27T10:22:08.129Z,18.07
2018-04-27T10:23:07.966Z,18.03
2018-04-27T10:24:07.934Z,18.02
2018-04-27T10:25:07.822Z,17.91
2018-04-27T10:26:07.844Z,17.71
2018-04-27T10:27:07.686Z,17.69
2018-04-27T10:28:07.653Z,17.85
2018-04-27T10:29:07.543Z,18.06
2018-04-27T10:30:07.562Z,17.98
2018-04-27T10:31:07.399Z,17.94
2018-04-27T10:32:07.374Z,17.87
2018-04-27T10:33:07.252Z,17.98
2018-04-27T10:34:07.282Z,18.06
2018-04-27T10:35:07.118Z,18.11
2018-04-27T10:36:07.090Z,18.16
2018-04-27T10:37:06.971Z,18.28
2018-04-27T10:38:07.003Z,18.44
2018-04-27T10:39:06.829Z,18.50
2018-04-27T10:40:06.847Z,18.62
2018-04-27T10:41:06.696Z,18.69
2018-04-27T10:42:06.724Z,18.67
2018-04-27T10:43:06.632Z,18.82
2018-04-27T10:44:06.530Z,18.84
2018-04-27T10:45:06.406Z,18.83
2018-04-27T10:46:06.439Z,18.73
2018-04-27T10:47:06.267Z,18.67
2018-04-27T10:48:10.856Z,18.79
2018-04-27T10:49:06.122Z,18.77
2018-04-27T10:50:10.873Z,18.82
2018-04-27T10:51:05.989Z,18.94
2018-04-27T10:52:06.993Z,18.94
2018-04-27T10:53:05.842Z,18.86
2018-04-27T10:54:05.879Z,18.95
2018-04-27T10:55:05.704Z,18.68
2018-04-27T10:56:05.696Z,18.83
2018-04-27T10:57:05.559Z,18.89
2018-04-27T10:58:05.598Z,18.92
2018-04-27T10:59:05.423Z,18.76
2018-04-27T11:00:05.408Z,18.79
2018-04-27T11:01:05.279Z,18.77
2018-04-27T11:02:05.323Z,18.79
2018-04-27T11:03:05.140Z,18.89
2018-04-27T11:04:05.126Z,18.97
2018-04-27T11:05:04.999Z,19.20
2018-04-27T11:06:05.040Z,19.27
2018-04-27T11:07:04.862Z,19.28
2018-04-27T11:08:04.846Z,19.13
2018-04-27T11:09:04.720Z,19.21
2018-04-27T11:10:04.754Z,19.20
2018-04-27T11:11:04.669Z,19.31
2018-04-27T11:12:04.566Z,19.21
2018-04-27T11:13:04.439Z,19.08
2018-04-27T11:14:04.477Z,18.98
2018-04-27T11:15:04.301Z,18.97
2018-04-27T11:16:04.286Z,18.99
2018-04-27T11:17:04.187Z,19.02
2018-04-27T11:18:04.198Z,19.05
2018-04-27T11:19:04.020Z,19.02
2018-04-27T11:20:04.007Z,19.15
2018-04-27T11:21:03.880Z,19.17
2018-04-27T11:22:03.913Z,19.18
2018-04-27T11:23:03.741Z,19.17
2018-04-27T11:24:03.726Z,19.01
2018-04-27T11:25:03.604Z,19.02
2018-04-27T11:26:03.665Z,18.99
2018-04-27T11:27:03.461Z,18.80
2018-04-27T11:28:03.443Z,18.90
2018-04-27T11:29:03.320Z,19.01
2018-04-27T11:30:03.356Z,19.15
2018-04-27T11:31:03.182Z,19.20
2018-04-27T11:32:03.164Z,19.18
2018-04-27T11:33:03.043Z,19.18
2018-04-27T11:34:03.076Z,19.23
2018-04-27T11:35:02.903Z,19.20
2018-04-27T11:36:02.852Z,19.08
2018-04-27T11:37:02.764Z,19.01
2018-04-27T11:38:02.793Z,18.92
2018-04-27T11:39:02.626Z,18.94
2018-04-27T11:40:02.604Z,19.02
2018-04-27T11:41:02.482Z,19.24
2018-04-27T11:42:02.409Z,19.36
2018-04-27T11:43:02.431Z,19.50
2018-04-27T11:44:02.277Z,19.64
2018-04-27T11:45:02.226Z,19.55
2018-04-27T11:46:02.135Z,19.32
2018-04-27T11:47:02.137Z,19.35
2018-04-27T11:48:01.996Z,19.36
2018-04-27T11:49:01.946Z,19.45
2018-04-27T11:50:01.857Z,19.57
2018-04-27T11:51:01.856Z,19.63
2018-04-27T11:52:01.716Z,19.63
2018-04-27T11:53:01.768Z,19.58
2018-04-27T11:54:01.582Z,19.68
2018-04-27T11:55:01.576Z,19.72
2018-04-27T11:56:01.439Z,19.73
2018-04-27T11:57:01.488Z,19.91
2018-04-27T11:58:01.300Z,20.03
2018-04-27T11:59:01.290Z,20.08
2018-04-27T12:00:01.162Z,20.13
2018-04-27T12:01:01.206Z,20.10
2018-04-27T12:02:01.020Z,19.97
2018-04-27T12:03:01.016Z,19.93
2018-04-27T12:04:00.882Z,20.03
2018-04-27T12:05:00.928Z,19.88
2018-04-27T12:06:01.287Z,19.94
2018-04-27T12:07:00.732Z,19.73
2018-04-27T12:08:00.607Z,19.71
2018-04-27T12:09:00.639Z,19.63
2018-04-27T12:10:00.468Z,19.60
2018-04-27T12:11:00.453Z,19.68
2018-04-27T12:12:00.329Z,19.65
2018-04-27T12:13:00.363Z,19.87
2018-04-27T12:14:00.191Z,19.97
2018-04-27T12:15:00.171Z,20.00
2018-04-27T12:16:00.049Z,19.95
2018-04-27T12:17:00.083Z,19.98
2018-04-27T12:17:59.912Z,19.91
2018-04-27T12:18:59.892Z,19.95
2018-04-27T12:19:59.775Z,19.76
2018-04-27T12:20:59.805Z,19.73
2018-04-27T12:21:59.635Z,19.83
2018-04-27T12:22:59.609Z,19.71
2018-04-27T12:23:59.496Z,19.86
2018-04-27T12:24:59.523Z,19.94
2018-04-27T12:25:59.361Z,19.88
2018-04-27T12:26:59.329Z,19.95
2018-04-27T12:27:59.220Z,19.91
2018-04-27T12:28:59.244Z,19.91
2018-04-27T12:29:59.084Z,19.69
2018-04-27T12:30:59.062Z,19.69
2018-04-27T12:31:58.996Z,19.64
2018-04-27T12:32:58.960Z,19.64
2018-04-27T12:33:58.806Z,19.76
2018-04-27T12:34:58.771Z,19.83
2018-04-27T12:35:58.669Z,19.88
2018-04-27T12:36:58.681Z,19.83
2018-04-27T12:37:58.530Z,19.87
2018-04-27T12:38:58.520Z,19.98
2018-04-27T12:39:58.391Z,19.90
2018-04-27T12:40:58.402Z,19.76
2018-04-27T12:41:58.254Z,19.79
2018-04-27T12:42:58.210Z,19.90
2018-04-27T12:43:58.114Z,20.08
2018-04-27T12:44:58.183Z,20.01
2018-04-27T12:45:57.988Z,20.08
2018-04-27T12:46:57.927Z,20.24
2018-04-27T12:47:57.840Z,20.23
2018-04-27T12:48:57.869Z,20.24
2018-04-27T12:49:57.701Z,20.30
2018-04-27T12:50:57.750Z,20.46
2018-04-27T12:51:57.564Z,20.46
2018-04-27T12:52:57.560Z,20.42
2018-04-27T12:53:57.427Z,20.34
2018-04-27T12:54:57.469Z,20.20
2018-04-27T12:55:57.287Z,20.23
2018-04-27T12:56:57.282Z,20.24
2018-04-27T12:57:57.152Z,20.30
2018-04-27T12:58:57.195Z,20.40
2018-04-27T12:59:57.014Z,20.31
2018-04-27T13:00:56.997Z,20.34
2018-04-27T13:01:56.873Z,20.38
2018-04-27T13:02:56.910Z,20.50
2018-04-27T13:03:56.734Z,20.51
2018-04-27T13:04:56.722Z,20.16
2018-04-27T13:05:56.599Z,20.10